Terminal Aerodrome Forecast
Issued by NWS

Home | Current Version | Previous Version | Text Only | Print | Product List | Glossary On
Versions: 1 2 3 4 5 6 7 8 9 10 11 12
359
FTUS41 KBTV 241120
TAFMSS
TAF
KMSS 241120Z 2412/2512 05009KT P6SM BKN025 BKN070
      TEMPO 2412/2415 SCT025
     FM241500 05009KT P6SM SCT250
     FM250800 06009KT P6SM FEW050=

USA.gov is the U.S. government's official web portal to all federal, state and local government web resources and services.